Terminal Aerodrome Forecast
Issued by NWS

Current Version | Previous Version | Text Only | Print | Product List | Glossary On
Versions: 1 2 3 4 5 6 7 8 9 10 11 12 13 14 15
000
FTUS41 KBTV 271700
TAFMPV
TAF
KMPV 271735Z 2718/2818 27005KT P6SM BKN040
     FM272300 31005KT P6SM SCT090
     FM281000 VRB03KT P6SM BKN015
     FM281300 31012G19KT P6SM SCT035=

USA.gov is the U.S. government's official web portal to all federal, state and local government web resources and services.